Time;durP1;ratioP1;P1;durP2;ratioP2;P2;SDS_P1;SDS_P2;PMS_P1;PMS_P2;Temp;Humidity;BMP_temperature;BMP_pressure;BME280_temperature;BME280_humidity;BME280_pressure;Samples;Min_cycle;Max_cycle;Signal;HPM_P1;HPM_P2
2023/07/17 00:01:52;;;;;;;5.85;3.53;;;17.50;99.90;;;;;;5030987;28;20300;-80
2023/07/17 00:04:19;;;;;;;4.70;2.80;;;17.50;99.90;;;;;;5027986;28;20290;-80
2023/07/17 00:06:47;;;;;;;5.43;3.47;;;17.50;99.90;;;;;;5028129;28;20224;-80
2023/07/17 00:09:14;;;;;;;5.47;3.33;;;17.50;99.90;;;;;;5039037;28;20233;-82
2023/07/17 00:11:41;;;;;;;5.65;3.58;;;17.50;99.90;;;;;;5044468;28;20229;-81
2023/07/17 00:14:07;;;;;;;5.30;3.30;;;17.50;99.90;;;;;;5026421;28;20236;-81
2023/07/17 00:16:34;;;;;;;4.78;3.30;;;17.50;99.90;;;;;;5022678;28;20667;-80
2023/07/17 00:19:01;;;;;;;5.40;2.90;;;17.50;99.90;;;;;;5028573;28;20770;-81
2023/07/17 00:21:28;;;;;;;4.60;3.00;;;17.50;99.90;;;;;;5040274;28;20232;-82
2023/07/17 00:23:57;;;;;;;4.85;3.63;;;17.50;99.90;;;;;;5045893;28;20715;-82
2023/07/17 00:26:24;;;;;;;4.35;3.50;;;17.50;99.90;;;;;;5026177;28;20757;-81
2023/07/17 00:28:51;;;;;;;6.38;3.90;;;17.50;99.90;;;;;;5027248;28;20681;-82
2023/07/17 00:31:18;;;;;;;3.90;3.10;;;17.40;99.90;;;;;;5027514;28;20217;-82
2023/07/17 00:33:44;;;;;;;5.55;3.22;;;17.40;99.90;;;;;;5028562;28;20233;-81
2023/07/17 00:36:11;;;;;;;4.97;3.58;;;17.40;99.90;;;;;;5045062;28;20312;-83
2023/07/17 00:38:38;;;;;;;4.40;3.20;;;17.30;99.90;;;;;;5036307;28;20274;-81
2023/07/17 00:41:08;;;;;;;6.05;3.72;;;17.20;99.90;;;;;;5023192;28;20229;-82
2023/07/17 00:43:35;;;;;;;6.10;3.22;;;17.20;99.90;;;;;;5043670;28;20252;-81
2023/07/17 00:46:03;;;;;;;5.65;3.20;;;17.20;99.90;;;;;;5033865;28;20727;-81
2023/07/17 00:48:30;;;;;;;6.35;3.67;;;17.10;99.90;;;;;;5030685;28;20934;-81
2023/07/17 00:50:57;;;;;;;4.13;3.30;;;17.00;99.90;;;;;;5039785;28;20717;-81
2023/07/17 00:53:24;;;;;;;4.60;3.30;;;16.90;99.90;;;;;;5026857;28;20850;-81
2023/07/17 00:55:50;;;;;;;5.40;3.40;;;16.90;99.90;;;;;;5042293;28;20304;-81
2023/07/17 00:58:18;;;;;;;5.80;3.53;;;16.90;99.90;;;;;;5050615;28;20228;-81
2023/07/17 01:00:45;;;;;;;5.13;3.60;;;16.80;99.90;;;;;;5025053;28;20233;-82
2023/07/17 01:03:14;;;;;;;5.40;3.30;;;16.80;99.90;;;;;;5043286;28;20217;-81
2023/07/17 01:05:40;;;;;;;4.77;3.50;;;16.70;99.90;;;;;;5028303;28;20227;-82
2023/07/17 01:08:07;;;;;;;6.03;3.70;;;16.70;99.90;;;;;;5037745;28;20228;-83
2023/07/17 01:10:34;;;;;;;5.50;3.40;;;16.60;99.90;;;;;;5042828;28;20255;-82
2023/07/17 01:13:03;;;;;;;5.37;3.50;;;16.60;99.90;;;;;;5037296;28;20225;-82
2023/07/17 01:15:31;;;;;;;4.30;3.10;;;16.50;99.90;;;;;;5029466;28;20217;-83
2023/07/17 01:17:58;;;;;;;4.13;3.07;;;16.50;99.90;;;;;;5028999;28;20286;-82
2023/07/17 01:20:25;;;;;;;4.07;3.57;;;16.40;99.90;;;;;;5052293;28;20650;-82
2023/07/17 01:22:56;;;;;;;5.53;3.63;;;16.40;99.90;;;;;;5034381;28;20252;-83
2023/07/17 01:25:23;;;;;;;4.43;3.40;;;16.40;99.90;;;;;;5036875;28;21223;-82
2023/07/17 01:27:50;;;;;;;4.80;3.13;;;16.30;99.90;;;;;;5030211;28;20228;-83
2023/07/17 01:30:17;;;;;;;5.70;3.97;;;16.30;99.90;;;;;;5028462;28;20232;-82
2023/07/17 01:32:44;;;;;;;4.77;3.07;;;16.30;99.90;;;;;;5040365;28;20225;-82
2023/07/17 01:35:10;;;;;;;5.30;3.53;;;16.20;99.90;;;;;;5023689;28;20292;-82
2023/07/17 01:37:39;;;;;;;5.10;3.60;;;16.30;99.90;;;;;;5025421;28;20229;-82
2023/07/17 01:40:10;;;;;;;6.23;3.57;;;16.20;99.90;;;;;;5026049;28;20279;-83
2023/07/17 01:42:37;;;;;;;4.63;3.47;;;16.20;99.90;;;;;;5028130;28;20228;-82
2023/07/17 01:45:04;;;;;;;5.77;3.30;;;16.20;99.90;;;;;;5025016;28;20228;-82
2023/07/17 01:47:31;;;;;;;5.10;3.50;;;16.20;99.90;;;;;;5041419;28;20951;-81
2023/07/17 01:49:58;;;;;;;6.40;3.80;;;16.20;99.90;;;;;;5037669;28;20255;-81
2023/07/17 01:52:24;;;;;;;5.03;3.50;;;16.20;99.90;;;;;;5028087;28;20292;-83
2023/07/17 01:54:51;;;;;;;6.93;3.40;;;16.10;99.90;;;;;;5043084;28;20243;-84
2023/07/17 01:57:19;;;;;;;5.50;3.30;;;16.10;99.90;;;;;;5029277;28;20231;-81
2023/07/17 01:59:46;;;;;;;4.33;3.33;;;16.10;99.90;;;;;;5038583;28;20288;-82
2023/07/17 02:02:12;;;;;;;5.27;3.50;;;16.10;99.90;;;;;;5041870;28;20299;-83
2023/07/17 02:04:39;;;;;;;5.00;3.60;;;16.10;99.90;;;;;;5047305;28;20227;-83
2023/07/17 02:07:06;;;;;;;5.93;3.77;;;16.10;99.90;;;;;;5031013;28;20258;-83
2023/07/17 02:09:33;;;;;;;4.77;3.43;;;16.10;99.90;;;;;;5030358;28;20225;-83
2023/07/17 02:11:59;;;;;;;4.93;3.27;;;16.00;99.90;;;;;;5028671;28;20252;-82
2023/07/17 02:14:27;;;;;;;7.03;3.60;;;16.00;99.90;;;;;;5029380;28;20231;-83
2023/07/17 02:16:54;;;;;;;5.10;3.03;;;16.00;99.90;;;;;;5043507;28;20836;-86
2023/07/17 02:19:21;;;;;;;4.97;3.60;;;16.00;99.90;;;;;;5030550;28;20248;-80
2023/07/17 02:21:47;;;;;;;5.13;3.50;;;15.90;99.90;;;;;;5024304;28;20235;-80
2023/07/17 02:24:14;;;;;;;5.23;3.57;;;15.90;99.90;;;;;;5031201;28;20773;-85
2023/07/17 02:26:41;;;;;;;5.87;3.57;;;15.90;99.90;;;;;;5022312;28;20897;-81
2023/07/17 02:29:08;;;;;;;4.40;3.23;;;15.80;99.90;;;;;;5027238;28;20238;-81
2023/07/17 02:31:37;;;;;;;5.40;3.80;;;15.80;99.90;;;;;;5026826;28;20262;-81
2023/07/17 02:34:04;;;;;;;5.00;3.77;;;15.80;99.90;;;;;;5026154;28;20220;-81
2023/07/17 02:36:31;;;;;;;5.30;3.40;;;15.70;99.90;;;;;;5041590;28;20302;-85
2023/07/17 02:38:58;;;;;;;4.23;3.47;;;15.70;99.90;;;;;;5031719;28;20227;-82
2023/07/17 02:41:25;;;;;;;5.10;3.50;;;15.70;99.90;;;;;;5024638;28;20515;-83
2023/07/17 02:43:53;;;;;;;3.90;3.27;;;15.70;99.90;;;;;;5025268;28;20216;-82
2023/07/17 02:46:20;;;;;;;7.37;3.80;;;15.60;99.90;;;;;;5025678;28;20971;-82
2023/07/17 02:48:48;;;;;;;6.60;3.80;;;15.60;99.90;;;;;;5038169;28;20600;-82
2023/07/17 02:51:14;;;;;;;8.40;3.80;;;15.60;99.90;;;;;;5043164;28;20232;-82
2023/07/17 02:53:42;;;;;;;4.70;3.80;;;15.60;99.90;;;;;;5030249;28;20971;-82
2023/07/17 02:56:09;;;;;;;4.27;3.50;;;15.60;99.90;;;;;;5037022;28;20234;-82
2023/07/17 02:58:36;;;;;;;5.57;3.77;;;15.50;99.90;;;;;;5026158;28;20255;-82
2023/07/17 03:01:02;;;;;;;4.97;3.50;;;15.50;99.90;;;;;;5022743;28;20219;-83
2023/07/17 03:03:29;;;;;;;7.27;4.00;;;15.50;99.90;;;;;;5042167;28;20261;-82
2023/07/17 03:05:59;;;;;;;4.80;3.37;;;15.40;99.90;;;;;;5040611;28;20724;-82
2023/07/17 03:08:26;;;;;;;6.57;3.73;;;15.40;99.90;;;;;;5028874;28;20315;-82
2023/07/17 03:10:53;;;;;;;5.17;4.00;;;15.30;99.90;;;;;;5034864;28;20228;-83
2023/07/17 03:13:21;;;;;;;5.40;3.73;;;15.30;99.90;;;;;;5021020;28;20290;-82
2023/07/17 03:15:49;;;;;;;4.77;3.40;;;15.30;99.90;;;;;;5045871;28;20243;-82
2023/07/17 03:18:16;;;;;;;4.40;3.37;;;15.30;99.90;;;;;;5028551;28;20281;-83
2023/07/17 03:20:44;;;;;;;5.10;3.37;;;15.30;99.90;;;;;;5042002;28;20671;-82
2023/07/17 03:23:12;;;;;;;7.63;3.63;;;15.30;99.90;;;;;;5020965;28;20232;-83
2023/07/17 03:25:42;;;;;;;5.43;3.90;;;15.30;99.90;;;;;;5015290;28;20231;-82
2023/07/17 03:28:08;;;;;;;4.90;3.50;;;15.30;99.90;;;;;;5041036;28;20225;-82
2023/07/17 03:30:36;;;;;;;4.77;3.60;;;15.30;99.90;;;;;;5026745;28;20219;-82
2023/07/17 03:33:03;;;;;;;5.37;3.03;;;15.30;99.90;;;;;;5022824;28;20251;-82
2023/07/17 03:35:30;;;;;;;6.07;3.80;;;15.30;99.90;;;;;;5039864;28;20311;-82
2023/07/17 03:37:57;;;;;;;7.53;3.63;;;15.30;99.90;;;;;;5020614;28;20229;-83
2023/07/17 03:40:25;;;;;;;4.13;3.27;;;15.30;99.90;;;;;;5033167;28;21349;-82
2023/07/17 03:42:52;;;;;;;5.90;3.80;;;15.40;99.90;;;;;;5021613;28;20230;-83
2023/07/17 03:45:19;;;;;;;4.70;3.30;;;15.40;99.90;;;;;;5037249;28;20929;-82
2023/07/17 03:47:45;;;;;;;6.00;3.90;;;15.40;99.90;;;;;;5021751;28;20232;-83
2023/07/17 03:50:12;;;;;;;6.03;3.57;;;15.40;99.90;;;;;;5022140;28;20706;-83
2023/07/17 03:52:39;;;;;;;4.00;3.20;;;15.40;99.90;;;;;;5015563;28;20315;-83
2023/07/17 03:55:07;;;;;;;6.77;3.67;;;15.50;99.90;;;;;;5040364;28;20249;-82
2023/07/17 03:57:35;;;;;;;4.70;3.43;;;15.50;99.90;;;;;;5028477;28;20223;-82
2023/07/17 04:00:04;;;;;;;5.63;3.40;;;15.60;99.90;;;;;;5035433;28;20221;-83
2023/07/17 04:02:39;;;;;;;4.90;3.53;;;15.60;99.90;;;;;;5021154;28;20219;-84
2023/07/17 04:05:08;;;;;;;5.07;3.63;;;15.60;99.90;;;;;;5032539;28;20258;-83
2023/07/17 04:07:35;;;;;;;4.83;3.20;;;15.70;99.90;;;;;;5039180;28;20594;-81
2023/07/17 04:10:03;;;;;;;5.03;3.60;;;15.70;99.90;;;;;;5024701;28;20782;-82
2023/07/17 04:12:30;;;;;;;6.50;3.10;;;15.70;99.90;;;;;;5042794;28;20223;-81
2023/07/17 04:14:59;;;;;;;7.57;3.73;;;15.80;99.90;;;;;;5036188;28;20487;-81
2023/07/17 04:17:26;;;;;;;5.20;3.40;;;15.80;99.90;;;;;;5022858;28;20990;-83
2023/07/17 04:19:53;;;;;;;5.23;3.43;;;15.80;99.90;;;;;;5022597;28;20976;-83
2023/07/17 04:22:20;;;;;;;5.80;3.13;;;15.80;99.90;;;;;;5041738;28;20728;-81
2023/07/17 04:24:47;;;;;;;6.87;3.60;;;15.80;99.90;;;;;;5044550;28;20235;-82
2023/07/17 04:27:14;;;;;;;5.47;3.40;;;15.90;99.90;;;;;;5041907;28;20299;-82
2023/07/17 04:29:41;;;;;;;7.00;3.97;;;15.90;99.90;;;;;;5024796;28;20266;-83
2023/07/17 04:32:10;;;;;;;6.33;3.73;;;15.90;99.90;;;;;;5028923;28;20244;-82
2023/07/17 04:34:37;;;;;;;4.50;3.00;;;16.00;99.90;;;;;;5042248;28;20954;-82
2023/07/17 04:37:04;;;;;;;7.23;3.83;;;16.00;99.90;;;;;;5015608;28;20638;-83
2023/07/17 04:39:31;;;;;;;5.73;3.20;;;16.00;99.90;;;;;;5024350;28;20910;-83
2023/07/17 04:41:58;;;;;;;5.25;3.45;;;16.00;99.90;;;;;;5018324;28;20311;-83
2023/07/17 04:44:25;;;;;;;4.70;3.40;;;16.10;99.90;;;;;;5043524;28;20240;-83
2023/07/17 04:46:52;;;;;;;6.60;3.73;;;16.10;99.90;;;;;;5020052;28;20239;-82
2023/07/17 04:49:21;;;;;;;5.50;3.47;;;16.10;99.90;;;;;;5018151;28;20706;-81
2023/07/17 04:51:49;;;;;;;8.97;3.50;;;16.20;99.90;;;;;;5021386;28;20229;-83
2023/07/17 04:54:16;;;;;;;5.77;3.60;;;16.30;99.90;;;;;;5026073;28;20225;-83
2023/07/17 04:56:43;;;;;;;6.33;3.40;;;16.40;99.90;;;;;;5021519;28;20232;-83
2023/07/17 04:59:16;;;;;;;5.03;3.17;;;16.40;99.90;;;;;;5017057;28;20916;-84
2023/07/17 05:01:43;;;;;;;5.40;3.33;;;16.50;99.90;;;;;;5021219;28;20271;-83
2023/07/17 05:04:10;;;;;;;5.70;3.60;;;16.60;99.90;;;;;;5033886;28;20291;-83
2023/07/17 05:06:38;;;;;;;5.13;3.17;;;16.60;99.90;;;;;;5036120;28;20248;-83
2023/07/17 05:09:06;;;;;;;5.30;3.27;;;16.60;99.90;;;;;;5019008;28;20224;-84
2023/07/17 05:11:33;;;;;;;6.60;3.37;;;16.70;99.90;;;;;;5018891;28;20927;-83
2023/07/17 05:14:00;;;;;;;6.80;3.60;;;16.70;99.90;;;;;;5034161;28;20236;-84
2023/07/17 05:16:27;;;;;;;5.93;3.20;;;16.70;99.90;;;;;;5036425;28;20316;-84
2023/07/17 05:18:54;;;;;;;6.83;3.30;;;16.80;99.90;;;;;;5017769;28;20275;-83
2023/07/17 05:21:21;;;;;;;6.57;3.93;;;16.80;99.90;;;;;;5018753;28;20225;-83
2023/07/17 05:23:50;;;;;;;7.00;3.67;;;16.80;99.90;;;;;;5016545;28;20218;-83
2023/07/17 05:26:19;;;;;;;4.83;3.27;;;16.90;99.90;;;;;;5036452;28;20217;-83
2023/07/17 05:28:48;;;;;;;6.00;3.50;;;16.90;99.90;;;;;;5020516;28;20224;-84
2023/07/17 05:31:15;;;;;;;6.17;3.50;;;17.00;99.90;;;;;;5022798;28;20312;-83
2023/07/17 05:33:43;;;;;;;9.13;3.75;;;17.00;99.90;;;;;;5038782;28;20216;-83
2023/07/17 05:36:10;;;;;;;6.95;3.75;;;17.10;99.90;;;;;;5014555;28;20226;-83
2023/07/17 05:38:38;;;;;;;5.85;3.47;;;17.20;99.90;;;;;;5041134;28;20645;-82
2023/07/17 05:41:08;;;;;;;10.82;4.13;;;17.20;99.90;;;;;;5041902;28;20240;-82
2023/07/17 05:43:36;;;;;;;7.30;3.45;;;17.30;99.90;;;;;;5031014;28;20279;-83
2023/07/17 05:46:11;;;;;;;6.63;3.88;;;17.40;99.90;;;;;;5027592;28;20218;-82
2023/07/17 05:48:38;;;;;;;8.25;3.70;;;17.60;99.90;;;;;;5028770;28;20224;-80
2023/07/17 05:51:04;;;;;;;7.55;3.65;;;17.70;99.90;;;;;;5043003;28;20923;-80
2023/07/17 05:53:31;;;;;;;4.88;3.30;;;17.80;99.90;;;;;;5027491;28;20233;-83
2023/07/17 05:55:58;;;;;;;5.00;3.10;;;17.80;99.90;;;;;;5028217;28;20255;-80
2023/07/17 05:58:26;;;;;;;6.20;3.30;;;17.90;99.90;;;;;;5030557;28;20279;-82
2023/07/17 06:00:53;;;;;;;9.30;3.58;;;18.00;99.90;;;;;;5015741;28;20535;-83
2023/07/17 06:03:20;;;;;;;7.03;2.97;;;18.10;99.90;;;;;;5020772;28;20228;-83
2023/07/17 06:05:46;;;;;;;8.65;3.35;;;18.20;99.90;;;;;;5021877;28;20251;-81
2023/07/17 06:08:14;;;;;;;7.45;3.15;;;18.30;99.90;;;;;;5028945;28;20737;-82
2023/07/17 06:10:43;;;;;;;8.70;3.30;;;18.40;99.90;;;;;;5034487;28;20212;-81
2023/07/17 06:13:09;;;;;;;6.13;3.38;;;18.50;99.90;;;;;;5046956;28;20236;-83
2023/07/17 06:15:38;;;;;;;5.75;3.17;;;18.50;99.90;;;;;;5046333;28;20255;-81
2023/07/17 06:18:06;;;;;;;7.00;3.40;;;18.60;99.90;;;;;;5047926;28;20221;-81
2023/07/17 06:20:32;;;;;;;8.93;3.65;;;18.70;99.90;;;;;;5043088;28;20313;-81
2023/07/17 06:22:59;;;;;;;7.53;3.58;;;18.70;99.90;;;;;;5031031;28;20251;-80
2023/07/17 06:25:26;;;;;;;8.05;3.72;;;18.80;99.90;;;;;;5030587;28;20235;-81
2023/07/17 06:27:53;;;;;;;6.25;3.00;;;18.80;99.90;;;;;;5034934;28;20226;-81
2023/07/17 06:30:20;;;;;;;7.57;3.15;;;18.80;99.90;;;;;;5032580;28;20242;-82
2023/07/17 06:32:48;;;;;;;4.82;3.13;;;18.80;99.90;;;;;;5026631;28;20227;-82
2023/07/17 06:35:15;;;;;;;8.40;3.45;;;18.80;99.90;;;;;;5029889;28;20299;-81
2023/07/17 06:37:41;;;;;;;5.85;2.95;;;18.90;99.90;;;;;;5019600;28;20309;-80
2023/07/17 06:40:10;;;;;;;7.05;3.08;;;18.90;99.90;;;;;;5025982;28;20231;-79
2023/07/17 06:42:37;;;;;;;5.18;3.13;;;19.00;99.90;;;;;;5025999;28;20224;-79
2023/07/17 06:45:04;;;;;;;7.70;3.25;;;19.10;99.90;;;;;;5043700;28;20695;-79
2023/07/17 06:47:31;;;;;;;6.60;3.25;;;19.20;99.90;;;;;;5027245;28;20245;-79
2023/07/17 06:50:00;;;;;;;9.07;3.50;;;19.30;99.90;;;;;;5024801;28;20256;-79
2023/07/17 06:52:26;;;;;;;8.13;2.97;;;19.50;99.90;;;;;;5038579;28;20233;-79
2023/07/17 06:54:53;;;;;;;8.00;3.35;;;19.60;99.90;;;;;;5016676;28;20228;-78
2023/07/17 06:57:21;;;;;;;6.55;2.85;;;19.80;99.90;;;;;;5020431;28;20225;-79
2023/07/17 06:59:48;;;;;;;4.78;2.90;;;20.00;99.90;;;;;;5032775;28;20235;-79
2023/07/17 07:02:15;;;;;;;6.28;3.08;;;20.20;99.90;;;;;;5022653;28;20224;-78
2023/07/17 07:04:42;;;;;;;9.38;3.17;;;20.40;99.90;;;;;;5029259;28;20225;-80
2023/07/17 07:07:10;;;;;;;4.55;2.95;;;20.50;99.90;;;;;;5023202;28;20227;-79
2023/07/17 07:09:36;;;;;;;7.93;3.22;;;20.50;99.90;;;;;;5030851;28;20698;-80
2023/07/17 07:12:04;;;;;;;7.43;3.13;;;20.70;99.90;;;;;;5022672;28;20218;-79
2023/07/17 07:14:30;;;;;;;6.15;3.00;;;20.70;99.90;;;;;;5025271;28;20229;-79
2023/07/17 07:16:57;;;;;;;6.38;3.25;;;20.80;99.90;;;;;;5021864;28;20228;-80
2023/07/17 07:19:24;;;;;;;5.82;2.95;;;20.80;99.90;;;;;;5025467;28;20263;-79
2023/07/17 07:21:50;;;;;;;8.18;3.00;;;21.00;99.90;;;;;;5023125;28;20228;-78
2023/07/17 07:24:18;;;;;;;6.97;3.15;;;21.40;99.90;;;;;;5022820;28;20586;-80
2023/07/17 07:26:45;;;;;;;6.43;3.00;;;21.80;99.90;;;;;;5025580;28;20255;-79
2023/07/17 07:29:12;;;;;;;5.38;3.03;;;22.20;99.90;;;;;;5013674;28;20231;-77
2023/07/17 07:31:39;;;;;;;7.22;3.20;;;22.70;99.10;;;;;;5009501;28;20225;-78
2023/07/17 07:34:05;;;;;;;3.67;2.45;;;23.10;99.00;;;;;;5025848;28;20248;-78
2023/07/17 07:36:32;;;;;;;6.05;3.15;;;23.60;97.80;;;;;;5019286;28;20626;-78
2023/07/17 07:38:59;;;;;;;4.72;2.67;;;24.00;97.10;;;;;;5018876;28;20259;-78
2023/07/17 07:41:27;;;;;;;8.35;3.28;;;24.50;97.00;;;;;;5020913;28;20231;-77
2023/07/17 07:43:54;;;;;;;5.18;2.75;;;24.90;96.40;;;;;;5015817;28;20223;-79
2023/07/17 07:46:20;;;;;;;5.28;3.05;;;25.20;95.80;;;;;;5019723;28;20244;-78
2023/07/17 07:48:47;;;;;;;4.90;3.00;;;25.60;95.10;;;;;;5020291;28;20226;-78
2023/07/17 07:51:14;;;;;;;5.63;3.20;;;26.00;94.60;;;;;;5038889;28;20249;-78
2023/07/17 07:53:40;;;;;;;4.78;2.80;;;26.30;93.50;;;;;;5023199;28;20229;-79
2023/07/17 07:56:07;;;;;;;6.18;3.10;;;26.60;93.60;;;;;;5047255;28;20233;-79
2023/07/17 07:58:35;;;;;;;5.35;2.55;;;26.90;92.30;;;;;;5034830;28;20971;-80
2023/07/17 08:01:02;;;;;;;4.68;2.20;;;27.20;91.00;;;;;;5023036;28;20229;-79
2023/07/17 08:03:29;;;;;;;4.47;2.40;;;27.40;90.80;;;;;;5024195;28;20221;-80
2023/07/17 08:05:56;;;;;;;4.47;2.90;;;27.60;90.40;;;;;;5030008;28;20228;-80
2023/07/17 08:08:22;;;;;;;3.90;2.50;;;27.80;90.00;;;;;;5016571;28;20227;-79
2023/07/17 08:10:51;;;;;;;4.68;2.63;;;27.90;87.00;;;;;;5040624;28;20232;-80
2023/07/17 08:13:18;;;;;;;3.70;2.70;;;28.10;83.30;;;;;;5039654;28;20217;-80
2023/07/17 08:15:46;;;;;;;4.82;2.35;;;28.20;85.00;;;;;;5034936;28;20228;-80
2023/07/17 08:18:13;;;;;;;4.47;2.17;;;28.40;83.40;;;;;;5018016;28;20308;-80
2023/07/17 08:20:39;;;;;;;3.90;2.50;;;28.50;84.00;;;;;;5026868;28;20286;-80
2023/07/17 08:23:07;;;;;;;3.45;2.05;;;28.70;81.50;;;;;;5028609;28;20225;-80
2023/07/17 08:25:34;;;;;;;3.92;2.10;;;28.80;81.40;;;;;;5040532;28;20320;-80
2023/07/17 08:28:00;;;;;;;4.63;2.00;;;28.90;78.80;;;;;;5029142;28;20296;-80
2023/07/17 08:30:27;;;;;;;3.50;2.40;;;29.10;77.70;;;;;;5019700;28;20221;-80
2023/07/17 08:32:55;;;;;;;4.47;2.47;;;29.10;76.70;;;;;;5022441;28;20231;-80
2023/07/17 08:35:22;;;;;;;3.03;2.10;;;29.10;74.80;;;;;;5022295;28;20224;-80
2023/07/17 08:37:49;;;;;;;4.15;2.10;;;29.00;75.30;;;;;;5022847;28;20220;-80
2023/07/17 08:40:15;;;;;;;6.05;2.47;;;28.90;74.40;;;;;;5040210;28;21114;-80
2023/07/17 08:42:46;;;;;;;4.30;2.17;;;28.70;74.20;;;;;;5089140;23;20215;-76
2023/07/17 08:45:14;;;;;;;5.55;2.17;;;28.40;72.50;;;;;;5059289;28;20739;-75
2023/07/17 08:47:41;;;;;;;3.72;1.95;;;28.20;72.30;;;;;;5058760;28;20231;-75
2023/07/17 08:50:12;;;;;;;4.43;2.00;;;28.00;71.70;;;;;;5060284;28;20589;-75
2023/07/17 08:52:39;;;;;;;3.08;2.10;;;27.90;69.80;;;;;;5057884;28;20701;-76
2023/07/17 08:55:07;;;;;;;3.05;2.08;;;27.90;70.60;;;;;;5059647;28;20306;-76
2023/07/17 08:57:36;;;;;;;2.67;2.00;;;27.90;70.20;;;;;;5078146;28;20306;-76
2023/07/17 09:00:04;;;;;;;4.55;1.80;;;28.00;69.20;;;;;;5055844;28;20226;-76
2023/07/17 09:02:31;;;;;;;3.33;1.67;;;28.10;69.70;;;;;;5061698;28;20261;-76
2023/07/17 09:04:57;;;;;;;3.83;1.92;;;28.30;70.10;;;;;;5061509;28;20713;-77
2023/07/17 09:07:25;;;;;;;5.22;2.17;;;28.40;68.40;;;;;;5058760;28;20693;-76
2023/07/17 09:10:13;;;;;;;3.28;1.77;;;28.70;69.40;;;;;;5078250;28;20223;-76
2023/07/17 09:12:42;;;;;;;4.35;2.42;;;28.90;64.70;;;;;;5063101;28;20219;-76
2023/07/17 09:15:09;;;;;;;3.47;1.88;;;29.20;64.50;;;;;;5061962;28;21026;-77
2023/07/17 09:17:37;;;;;;;5.53;2.10;;;29.30;63.90;;;;;;5081832;28;20219;-77
2023/07/17 09:20:08;;;;;;;4.80;1.90;;;29.40;63.80;;;;;;5062544;28;20219;-77
2023/07/17 09:22:38;;;;;;;4.07;1.80;;;29.40;63.40;;;;;;5063667;28;20230;-77
2023/07/17 09:25:05;;;;;;;7.80;2.25;;;29.40;62.30;;;;;;5062241;28;20250;-76
2023/07/17 09:27:42;;;;;;;3.35;1.85;;;29.50;62.70;;;;;;5066092;28;20605;-77
2023/07/17 09:30:11;;;;;;;3.38;2.20;;;29.60;61.80;;;;;;5063323;28;20222;-77
2023/07/17 09:32:38;;;;;;;3.25;1.83;;;29.70;62.80;;;;;;5079307;28;20223;-77
2023/07/17 09:35:06;;;;;;;4.88;1.95;;;29.80;61.70;;;;;;5079776;28;20234;-76
2023/07/17 09:37:33;;;;;;;3.92;1.58;;;30.00;62.60;;;;;;5064510;28;20231;-77
2023/07/17 09:40:02;;;;;;;3.72;1.40;;;30.10;58.90;;;;;;5062730;28;20269;-77
2023/07/17 09:42:30;;;;;;;2.72;1.75;;;30.20;57.60;;;;;;5063335;28;20663;-77
2023/07/17 09:44:56;;;;;;;3.28;1.58;;;30.30;58.20;;;;;;5064090;28;20231;-77
2023/07/17 09:47:23;;;;;;;3.10;2.10;;;30.40;58.20;;;;;;5063960;28;22753;-77
2023/07/17 09:49:51;;;;;;;5.15;1.95;;;30.60;57.60;;;;;;5063444;28;20241;-77
2023/07/17 09:52:19;;;;;;;2.83;2.10;;;30.70;56.70;;;;;;5061423;28;20231;-77
2023/07/17 09:54:46;;;;;;;3.45;1.77;;;30.80;56.40;;;;;;5063337;28;20742;-77
2023/07/17 09:57:26;;;;;;;3.13;1.90;;;30.80;55.60;;;;;;5065071;28;20220;-77
2023/07/17 09:59:55;;;;;;;3.42;1.80;;;30.90;56.00;;;;;;5057436;28;20615;-77
2023/07/17 10:02:24;;;;;;;4.93;2.20;;;30.80;55.10;;;;;;5062723;28;20227;-77
2023/07/17 10:04:53;;;;;;;3.58;1.83;;;30.70;55.50;;;;;;5064100;28;20250;-77
2023/07/17 10:07:20;;;;;;;5.75;2.00;;;30.50;55.70;;;;;;5058379;28;20642;-77
2023/07/17 10:09:48;;;;;;;4.40;2.05;;;30.20;54.90;;;;;;5064975;28;20219;-77
2023/07/17 10:12:17;;;;;;;5.38;1.70;;;29.90;55.30;;;;;;5064641;28;20220;-77
2023/07/17 10:14:46;;;;;;;5.45;2.03;;;29.60;55.60;;;;;;5064631;28;20223;-77
2023/07/17 10:17:28;;;;;;;3.33;1.92;;;29.30;56.40;;;;;;5064517;28;20881;-77
2023/07/17 10:19:57;;;;;;;3.72;1.73;;;29.20;57.30;;;;;;5079623;28;20233;-77
2023/07/17 10:22:28;;;;;;;6.35;2.05;;;29.30;55.90;;;;;;5064206;28;20232;-77
2023/07/17 10:24:56;;;;;;;8.27;2.38;;;29.40;55.20;;;;;;5060682;28;20229;-77
2023/07/17 10:27:40;;;;;;;4.38;2.00;;;29.50;55.90;;;;;;5060524;28;20319;-76
2023/07/17 10:30:22;;;;;;;3.38;1.90;;;29.60;54.90;;;;;;5064363;28;20229;-77
2023/07/17 10:32:52;;;;;;;3.53;1.95;;;29.70;54.40;;;;;;5062972;28;20915;-77
2023/07/17 10:35:21;;;;;;;2.97;1.80;;;29.80;54.50;;;;;;5061692;28;20316;-77
2023/07/17 10:37:48;;;;;;;4.28;2.00;;;29.90;54.50;;;;;;5062791;28;20334;-77
2023/07/17 10:40:28;;;;;;;5.25;2.03;;;30.00;55.30;;;;;;5064180;28;20700;-77
2023/07/17 10:43:11;;;;;;;3.03;2.00;;;30.10;53.90;;;;;;5075926;28;20224;-77
2023/07/17 10:45:38;;;;;;;3.90;2.08;;;30.30;53.50;;;;;;5062554;28;20223;-77
2023/07/17 10:48:06;;;;;;;2.78;1.70;;;30.40;53.90;;;;;;5059251;28;20964;-77
2023/07/17 10:50:32;;;;;;;3.53;1.92;;;30.40;52.60;;;;;;5060526;28;20227;-77
2023/07/17 10:53:02;;;;;;;3.50;2.13;;;30.30;52.60;;;;;;5061389;28;20223;-77
2023/07/17 10:55:29;;;;;;;3.25;1.92;;;30.10;52.30;;;;;;5061559;28;20653;-77
2023/07/17 10:57:58;;;;;;;3.95;1.95;;;29.90;52.30;;;;;;5062754;28;20231;-77
2023/07/17 11:00:25;;;;;;;3.60;2.33;;;29.80;53.50;;;;;;5062057;28;20245;-78
2023/07/17 11:02:52;;;;;;;4.97;1.90;;;29.60;53.30;;;;;;5061449;28;20231;-76
2023/07/17 11:05:19;;;;;;;3.38;1.88;;;29.40;52.80;;;;;;5061675;28;20219;-77
2023/07/17 11:07:46;;;;;;;4.22;2.50;;;29.30;53.30;;;;;;5061468;28;20727;-77
2023/07/17 11:10:14;;;;;;;4.43;2.00;;;29.10;53.00;;;;;;5061850;28;20216;-77
2023/07/17 11:12:42;;;;;;;4.70;2.42;;;29.10;53.60;;;;;;5059141;28;20318;-77
2023/07/17 11:15:15;;;;;;;4.72;2.42;;;29.10;54.30;;;;;;5075292;28;20227;-77
2023/07/17 11:17:42;;;;;;;5.85;2.55;;;29.20;54.20;;;;;;5062429;28;20247;-77
2023/07/17 11:20:10;;;;;;;4.05;2.10;;;29.40;54.80;;;;;;5050908;28;20227;-76
2023/07/17 11:22:40;;;;;;;4.25;1.83;;;29.50;54.20;;;;;;5046434;28;20223;-76
2023/07/17 11:25:08;;;;;;;5.30;2.58;;;29.60;53.50;;;;;;5058929;28;20689;-77
2023/07/17 11:27:35;;;;;;;4.13;2.35;;;29.60;53.20;;;;;;5062822;28;20224;-77
2023/07/17 11:30:02;;;;;;;4.38;2.47;;;29.50;53.20;;;;;;5057191;28;20275;-77
2023/07/17 11:32:31;;;;;;;3.42;2.05;;;29.40;53.40;;;;;;5076842;28;20223;-77
2023/07/17 11:35:00;;;;;;;3.70;2.20;;;29.20;53.90;;;;;;5057798;28;20305;-77
2023/07/17 11:37:30;;;;;;;4.22;2.42;;;29.30;54.60;;;;;;5072519;28;20227;-77
2023/07/17 11:39:57;;;;;;;5.97;2.50;;;29.40;54.60;;;;;;5064384;28;20678;-77
2023/07/17 11:42:23;;;;;;;4.55;2.38;;;29.60;54.40;;;;;;5060291;28;20240;-77
2023/07/17 11:44:58;;;;;;;3.75;2.20;;;29.80;53.50;;;;;;5057098;28;20276;-77
2023/07/17 11:47:26;;;;;;;4.97;3.00;;;29.80;53.00;;;;;;5060541;28;20548;-77
2023/07/17 11:49:55;;;;;;;5.93;2.70;;;29.60;52.60;;;;;;5056754;28;20212;-78
2023/07/17 11:52:22;;;;;;;4.18;2.67;;;29.40;53.20;;;;;;5058082;28;20219;-77
2023/07/17 11:54:48;;;;;;;5.18;2.58;;;29.10;53.40;;;;;;5057113;28;20241;-77
2023/07/17 11:57:15;;;;;;;4.25;2.60;;;28.80;53.70;;;;;;5056823;28;20392;-77
2023/07/17 11:59:45;;;;;;;5.65;2.60;;;28.50;54.20;;;;;;5059791;28;20677;-77
2023/07/17 12:02:15;;;;;;;8.30;3.58;;;28.10;55.40;;;;;;5058471;28;20215;-77
2023/07/17 12:04:41;;;;;;;9.15;4.10;;;27.80;61.30;;;;;;5060660;28;20234;-77
2023/07/17 12:07:19;;;;;;;9.93;3.70;;;27.40;67.20;;;;;;5055310;28;20319;-77
2023/07/17 12:09:49;;;;;;;8.02;3.20;;;26.90;70.20;;;;;;5058140;28;21078;-78
2023/07/17 12:12:16;;;;;;;6.68;3.25;;;26.30;73.40;;;;;;5058858;28;20234;-78
2023/07/17 12:14:43;;;;;;;5.57;2.63;;;25.90;72.50;;;;;;5059229;28;20231;-78
2023/07/17 12:17:09;;;;;;;4.40;2.30;;;25.40;73.80;;;;;;5058604;28;20227;-78
2023/07/17 12:19:37;;;;;;;3.10;2.08;;;24.80;75.50;;;;;;5057450;28;20215;-79
2023/07/17 12:22:04;;;;;;;4.82;2.08;;;24.30;76.70;;;;;;5058434;28;20288;-79
2023/07/17 12:24:32;;;;;;;4.35;1.80;;;23.90;78.10;;;;;;5057338;28;20313;-79
2023/07/17 12:26:58;;;;;;;7.22;2.67;;;23.40;80.00;;;;;;5058514;28;20609;-80
2023/07/17 12:29:25;;;;;;;12.80;3.65;;;22.90;83.30;;;;;;5078058;28;20574;-81
2023/07/17 12:31:52;;;;;;;7.88;2.25;;;22.40;87.60;;;;;;5061953;28;20735;-82
2023/07/17 12:34:20;;;;;;;3.83;2.00;;;21.80;91.80;;;;;;5062553;28;20222;-79
2023/07/17 12:36:47;;;;;;;4.25;2.17;;;21.30;93.20;;;;;;5060505;28;20297;-79
2023/07/17 12:39:15;;;;;;;4.28;2.10;;;20.80;95.40;;;;;;5059694;28;20223;-79
2023/07/17 12:41:43;;;;;;;2.53;1.75;;;20.40;97.60;;;;;;5056979;28;20226;-78
2023/07/17 12:44:10;;;;;;;3.80;1.67;;;20.10;99.90;;;;;;5057895;28;20221;-78
2023/07/17 12:46:37;;;;;;;1.92;1.40;;;19.90;99.90;;;;;;5058991;28;20242;-79
2023/07/17 12:49:04;;;;;;;3.85;1.45;;;19.70;99.90;;;;;;5062258;28;20221;-78
2023/07/17 12:51:31;;;;;;;1.90;1.20;;;19.60;99.50;;;;;;5062812;28;20219;-79